createdAt,value
2022-07-29T00:02:00.617Z,68.96
2022-07-29T00:04:30.617Z,69.64
2022-07-29T00:06:59.266Z,69.62
2022-07-29T00:09:30.589Z,69.86
2022-07-29T00:12:02.112Z,69.89
2022-07-29T00:14:30.861Z,70.01
2022-07-29T00:17:03.009Z,69.71
2022-07-29T00:19:31.299Z,70.30
2022-07-29T00:22:01.563Z,70.33
2022-07-29T00:24:29.831Z,70.31
2022-07-29T00:26:58.833Z,70.48
2022-07-29T00:29:34.169Z,70.67
2022-07-29T00:32:12.047Z,70.77
2022-07-29T00:35:05.828Z,70.87
2022-07-29T00:37:34.908Z,71.09
2022-07-29T00:40:03.156Z,71.34
2022-07-29T00:42:34.105Z,71.47
2022-07-29T00:45:02.227Z,70.77
2022-07-29T00:47:34.253Z,71.00
2022-07-29T00:50:03.904Z,71.36
2022-07-29T00:52:35.457Z,71.43
2022-07-29T00:55:08.649Z,71.31
2022-07-29T00:57:38.307Z,71.74
2022-07-29T01:00:08.784Z,71.72
2022-07-29T01:02:40.606Z,72.05
2022-07-29T01:05:14.557Z,71.71
2022-07-29T01:07:43.969Z,72.17
2022-07-29T01:10:16.898Z,72.17
2022-07-29T01:12:52.203Z,72.08
2022-07-29T01:15:20.670Z,72.49
2022-07-29T01:17:59.932Z,72.39
2022-07-29T01:20:42.214Z,72.16
2022-07-29T01:23:35.062Z,72.08
2022-07-29T01:26:23.574Z,72.28
2022-07-29T01:29:10.959Z,72.58
2022-07-29T01:31:58.757Z,72.34
2022-07-29T01:34:33.556Z,73.05
2022-07-29T01:37:12.218Z,73.06
2022-07-29T01:39:43.748Z,73.00
2022-07-29T01:42:20.224Z,73.18
2022-07-29T01:44:56.405Z,73.79
2022-07-29T01:47:35.808Z,73.55
2022-07-29T01:50:12.564Z,73.97
2022-07-29T01:52:48.746Z,73.14
2022-07-29T01:55:19.869Z,73.66
2022-07-29T01:57:52.367Z,73.18
2022-07-29T02:00:24.229Z,73.05
2022-07-29T02:02:55.266Z,73.42
2022-07-29T02:05:27.071Z,73.61
2022-07-29T02:07:57.834Z,73.78
2022-07-29T02:10:29.879Z,73.81
2022-07-29T02:13:00.456Z,73.97
2022-07-29T02:15:49.972Z,73.79
2022-07-29T02:18:22.684Z,73.78
2022-07-29T02:21:00.570Z,73.51
2022-07-29T02:23:32.894Z,73.02
2022-07-29T02:26:22.766Z,73.63
2022-07-29T02:28:54.464Z,73.57
2022-07-29T02:31:31.243Z,73.57
2022-07-29T02:34:02.409Z,73.69
2022-07-29T02:36:33.300Z,73.83
2022-07-29T02:39:04.866Z,73.25
2022-07-29T02:41:39.611Z,73.58
2022-07-29T02:44:17.397Z,73.55
2022-07-29T02:46:52.255Z,73.50
2022-07-29T02:49:33.375Z,73.64
2022-07-29T02:52:09.205Z,73.36
2022-07-29T02:54:43.742Z,73.83
2022-07-29T02:57:21.600Z,73.94
2022-07-29T02:59:57.056Z,74.00
2022-07-29T03:02:29.301Z,74.14
2022-07-29T03:05:02.075Z,73.86
2022-07-29T03:07:32.048Z,73.91
2022-07-29T03:10:04.447Z,74.03
2022-07-29T03:12:37.494Z,73.92
2022-07-29T03:15:10.342Z,73.87
2022-07-29T03:17:41.882Z,73.94
2022-07-29T03:20:12.322Z,73.93
2022-07-29T03:22:45.042Z,74.00
2022-07-29T03:25:17.976Z,73.77
2022-07-29T03:27:48.222Z,74.23
2022-07-29T03:30:21.879Z,73.64
2022-07-29T03:32:53.511Z,73.67
2022-07-29T03:35:22.586Z,74.10
2022-07-29T03:37:53.651Z,73.77
2022-07-29T03:40:33.246Z,74.08
2022-07-29T03:43:03.633Z,74.51
2022-07-29T03:45:34.273Z,74.51
2022-07-29T03:48:13.245Z,74.07
2022-07-29T03:50:45.385Z,74.31
2022-07-29T03:53:16.643Z,74.61
2022-07-29T03:55:57.324Z,74.50
2022-07-29T03:58:33.106Z,74.99
2022-07-29T04:01:02.069Z,75.24
2022-07-29T04:03:38.048Z,75.30
2022-07-29T04:06:09.066Z,74.78
2022-07-29T04:08:40.376Z,75.06
2022-07-29T04:11:09.260Z,75.36
2022-07-29T04:13:38.654Z,75.55
2022-07-29T04:16:07.115Z,75.78
2022-07-29T04:18:35.733Z,75.72
2022-07-29T04:21:08.591Z,75.98
2022-07-29T04:23:47.947Z,75.84
2022-07-29T04:26:22.412Z,76.17
2022-07-29T04:28:52.773Z,76.05
2022-07-29T04:31:25.554Z,76.31
2022-07-29T04:33:56.870Z,76.21
2022-07-29T04:36:30.191Z,76.11
2022-07-29T04:38:59.276Z,75.99
2022-07-29T04:41:32.695Z,76.00
2022-07-29T04:44:07.537Z,75.76
2022-07-29T04:46:37.543Z,75.72
2022-07-29T04:49:06.349Z,76.24
2022-07-29T04:51:36.016Z,76.09
2022-07-29T04:54:04.639Z,75.99
2022-07-29T04:56:33.474Z,75.92
2022-07-29T04:59:01.925Z,76.00
2022-07-29T05:01:29.957Z,75.72
2022-07-29T05:04:00.493Z,75.62
2022-07-29T05:06:29.382Z,75.45
2022-07-29T05:09:01.800Z,75.47
2022-07-29T05:11:33.018Z,74.96
2022-07-29T05:14:01.114Z,74.88
2022-07-29T05:16:30.599Z,75.00
2022-07-29T05:18:59.376Z,74.93
2022-07-29T05:21:27.829Z,74.93
2022-07-29T05:23:56.034Z,75.11
2022-07-29T05:26:28.658Z,74.84
2022-07-29T05:28:58.075Z,75.08
2022-07-29T05:31:30.590Z,75.22
2022-07-29T05:33:59.144Z,75.71
2022-07-29T05:36:27.560Z,75.61
2022-07-29T05:38:56.284Z,75.39
2022-07-29T05:41:24.655Z,75.30
2022-07-29T05:43:55.716Z,74.69
2022-07-29T05:46:24.420Z,74.30
2022-07-29T05:48:53.317Z,74.26
2022-07-29T05:51:22.841Z,73.99
2022-07-29T05:53:50.971Z,74.02
2022-07-29T05:56:20.117Z,74.22
2022-07-29T05:58:53.443Z,74.86
2022-07-29T06:01:24.336Z,74.18
2022-07-29T06:03:55.524Z,74.14
2022-07-29T06:06:26.225Z,74.23
2022-07-29T06:08:55.005Z,74.34
2022-07-29T06:11:28.326Z,74.20
2022-07-29T06:13:56.780Z,74.00
2022-07-29T06:16:30.330Z,74.16
2022-07-29T06:19:01.938Z,74.46
2022-07-29T06:21:32.693Z,74.08
2022-07-29T06:24:01.382Z,73.90
2022-07-29T06:26:32.637Z,73.12
2022-07-29T06:29:04.781Z,72.60
2022-07-29T06:31:37.641Z,70.95
2022-07-29T06:34:06.116Z,69.04
2022-07-29T06:36:37.904Z,68.72
2022-07-29T06:39:07.734Z,69.05
2022-07-29T06:41:38.143Z,68.66
2022-07-29T06:44:11.711Z,68.70
2022-07-29T06:46:44.605Z,67.69
2022-07-29T06:49:15.385Z,67.96
2022-07-29T06:51:44.902Z,68.76
2022-07-29T06:54:15.762Z,68.75
2022-07-29T06:56:44.530Z,67.98
2022-07-29T06:59:14.339Z,68.30
2022-07-29T07:01:47.397Z,66.67
2022-07-29T07:04:16.976Z,66.90
2022-07-29T07:06:51.658Z,66.08
2022-07-29T07:09:19.671Z,66.17
2022-07-29T07:11:52.969Z,66.33
2022-07-29T07:14:22.260Z,64.52
2022-07-29T07:16:52.938Z,65.52
2022-07-29T07:19:23.185Z,66.08
2022-07-29T07:21:54.801Z,65.70
2022-07-29T07:24:26.365Z,64.94
2022-07-29T07:26:57.806Z,64.13
2022-07-29T07:29:27.343Z,63.60
2022-07-29T07:32:00.749Z,63.74
2022-07-29T07:34:32.115Z,64.45
2022-07-29T07:37:04.438Z,64.92
2022-07-29T07:39:33.090Z,64.91
2022-07-29T07:42:01.209Z,64.56
2022-07-29T07:44:30.729Z,65.49
2022-07-29T07:47:03.929Z,65.44
2022-07-29T07:49:43.936Z,65.11
2022-07-29T07:52:13.553Z,63.67
2022-07-29T07:54:43.983Z,61.80
2022-07-29T07:57:13.309Z,61.79
2022-07-29T07:59:43.758Z,61.56
2022-07-29T08:02:16.432Z,63.21
2022-07-29T08:04:44.863Z,62.00
2022-07-29T08:07:15.921Z,62.36
2022-07-29T08:09:44.560Z,62.41
2022-07-29T08:12:14.183Z,62.10
2022-07-29T08:14:47.237Z,62.33
2022-07-29T08:17:16.729Z,61.55
2022-07-29T08:19:45.413Z,63.33
2022-07-29T08:22:16.681Z,61.62
2022-07-29T08:24:45.126Z,62.65
2022-07-29T08:27:41.931Z,63.21
2022-07-29T08:30:07.769Z,62.98
2022-07-29T08:32:56.208Z,62.76
2022-07-29T08:35:26.005Z,63.63
2022-07-29T08:37:57.853Z,64.78
2022-07-29T08:40:30.494Z,64.99
2022-07-29T08:43:07.926Z,62.54
2022-07-29T08:45:48.119Z,63.76
2022-07-29T08:48:23.718Z,63.93
2022-07-29T08:50:55.290Z,62.85
2022-07-29T08:53:27.414Z,62.29
2022-07-29T08:55:57.613Z,61.58
2022-07-29T08:58:27.576Z,62.75
2022-07-29T09:00:58.388Z,62.67
2022-07-29T09:03:34.193Z,61.01
2022-07-29T09:06:03.032Z,59.88
2022-07-29T09:08:35.866Z,61.92
2022-07-29T09:11:05.534Z,63.42
2022-07-29T09:13:35.385Z,60.73
2022-07-29T09:16:12.276Z,61.85
2022-07-29T09:18:46.476Z,62.77
2022-07-29T15:05:44.803Z,40.10
2022-07-29T15:08:17.406Z,41.14
2022-07-29T15:10:46.169Z,39.91
2022-07-29T15:13:14.590Z,40.57
2022-07-29T15:15:46.521Z,41.09
2022-07-29T15:18:25.492Z,41.59
2022-07-29T15:20:58.390Z,40.41
2022-07-29T15:23:29.045Z,41.15
2022-07-29T15:25:57.485Z,41.25
2022-07-29T15:28:28.935Z,40.65
2022-07-29T15:31:01.357Z,40.84
2022-07-29T15:33:35.492Z,39.87
2022-07-29T15:36:06.272Z,40.26
2022-07-29T15:38:36.318Z,40.92
2022-07-29T15:41:16.549Z,40.97
2022-07-29T15:43:47.826Z,40.66
2022-07-29T15:46:34.458Z,40.19
2022-07-29T15:49:05.007Z,40.92
2022-07-29T15:51:37.910Z,40.83
2022-07-29T15:54:06.715Z,41.37
2022-07-29T15:56:36.212Z,40.60
2022-07-29T15:59:05.268Z,41.50
2022-07-29T16:01:42.516Z,41.23
2022-07-29T16:04:12.521Z,40.90
2022-07-29T16:06:42.164Z,41.38
2022-07-29T16:09:11.109Z,40.73
2022-07-29T16:11:42.551Z,41.35
2022-07-29T16:14:14.280Z,42.88
2022-07-29T16:16:42.822Z,42.68
2022-07-29T16:19:11.542Z,43.82
2022-07-29T16:21:40.079Z,43.75
2022-07-29T16:24:14.800Z,43.69
2022-07-29T16:26:43.288Z,43.17
2022-07-29T16:29:11.346Z,42.50
2022-07-29T16:31:39.770Z,42.76
2022-07-29T16:34:08.125Z,43.45
2022-07-29T16:36:39.439Z,44.65
2022-07-29T16:39:10.967Z,45.52
2022-07-29T16:41:44.616Z,45.03
2022-07-29T16:44:16.242Z,46.18
2022-07-29T16:46:49.613Z,46.39
2022-07-29T16:49:19.347Z,46.15
2022-07-29T16:51:49.343Z,46.57
2022-07-29T16:54:17.729Z,47.00
2022-07-29T16:56:49.500Z,47.40
2022-07-29T16:59:17.682Z,47.53
2022-07-29T17:01:46.079Z,47.59
2022-07-29T17:04:15.289Z,47.35
2022-07-29T17:06:43.800Z,46.60
2022-07-29T17:09:18.126Z,46.52
2022-07-29T17:11:52.531Z,45.91
2022-07-29T17:14:25.822Z,46.58
2022-07-29T17:17:01.109Z,47.97
2022-07-29T17:19:42.088Z,47.43
2022-07-29T17:22:17.237Z,47.92
2022-07-29T17:24:49.413Z,48.29
2022-07-29T17:27:18.964Z,49.20
2022-07-29T17:29:55.059Z,47.12
2022-07-29T17:32:23.423Z,46.92
2022-07-29T17:35:00.706Z,46.50
2022-07-29T17:37:33.966Z,46.34
2022-07-29T17:40:02.401Z,46.79
2022-07-29T17:42:31.457Z,48.59
2022-07-29T17:45:07.209Z,49.40
2022-07-29T17:47:38.340Z,48.96
2022-07-29T17:50:09.925Z,49.72
2022-07-29T17:52:39.229Z,51.11
2022-07-29T17:55:10.979Z,52.17
2022-07-29T17:57:47.629Z,53.01
2022-07-29T18:00:19.655Z,53.35
2022-07-29T18:02:50.093Z,53.42
2022-07-29T18:05:21.276Z,54.18
2022-07-29T18:07:50.292Z,54.85
2022-07-29T18:10:18.373Z,54.72
2022-07-29T18:12:47.258Z,54.54
2022-07-29T18:15:15.619Z,55.17
2022-07-29T18:17:56.483Z,56.41
2022-07-29T18:20:26.904Z,56.65
2022-07-29T18:22:59.433Z,56.90
2022-07-29T18:25:31.109Z,57.22
2022-07-29T18:28:01.965Z,57.44
2022-07-29T18:30:37.494Z,58.37
2022-07-29T18:33:24.299Z,58.61
2022-07-29T18:36:11.195Z,59.71
2022-07-29T18:38:44.890Z,60.55
2022-07-29T18:41:20.345Z,61.33
2022-07-29T18:43:49.816Z,62.12
2022-07-29T18:46:18.458Z,62.17
2022-07-29T18:48:50.620Z,62.39
2022-07-29T18:51:19.325Z,62.30
2022-07-29T18:53:47.814Z,63.54
2022-07-29T18:56:15.941Z,63.26
2022-07-29T18:58:44.598Z,63.28
2022-07-29T19:01:16.635Z,63.62
2022-07-29T19:03:45.406Z,63.54
2022-07-29T19:06:18.509Z,63.82
2022-07-29T19:08:49.189Z,63.63
2022-07-29T19:11:18.649Z,64.23
2022-07-29T19:13:47.249Z,63.68
2022-07-29T19:16:16.956Z,64.03
2022-07-29T19:18:47.367Z,64.52
2022-07-29T19:21:17.373Z,64.82
2022-07-29T19:24:05.964Z,65.33
2022-07-29T19:26:36.495Z,65.92
2022-07-29T19:29:07.567Z,65.78
2022-07-29T19:31:36.039Z,66.31
2022-07-29T19:34:07.096Z,66.61
2022-07-29T19:36:39.587Z,67.07
2022-07-29T19:39:11.083Z,67.82
2022-07-29T19:41:39.165Z,67.80
2022-07-29T19:44:11.398Z,68.17
2022-07-29T19:46:42.144Z,68.47
2022-07-29T19:49:11.534Z,68.75
2022-07-29T19:51:42.919Z,69.32
2022-07-29T19:54:11.886Z,69.95
2022-07-29T19:56:44.909Z,70.50
2022-07-29T19:59:16.675Z,70.71
2022-07-29T20:01:45.072Z,71.25
2022-07-29T20:04:13.398Z,71.84
2022-07-29T20:06:45.450Z,72.81
2022-07-29T20:09:17.007Z,72.94
2022-07-29T20:11:49.287Z,73.57
2022-07-29T20:14:17.777Z,72.98
2022-07-29T20:16:46.467Z,73.99
2022-07-29T20:19:20.324Z,73.74
2022-07-29T20:21:50.761Z,73.52
2022-07-29T20:24:19.323Z,73.93
2022-07-29T20:26:50.827Z,74.47
2022-07-29T20:29:18.959Z,74.96
2022-07-29T20:31:53.507Z,75.02
2022-07-29T20:34:25.203Z,75.44
2022-07-29T20:37:01.606Z,76.24
2022-07-29T20:39:30.457Z,76.59
2022-07-29T20:42:00.963Z,77.15
2022-07-29T20:44:29.582Z,78.07
2022-07-29T20:47:03.790Z,78.04
2022-07-29T20:49:36.587Z,78.11
2022-07-29T20:52:19.686Z,78.18
2022-07-29T20:54:48.180Z,78.64
2022-07-29T20:57:16.693Z,78.46
2022-07-29T20:59:45.904Z,78.41
2022-07-29T21:02:17.790Z,78.84
2022-07-29T22:03:20.816Z,78.82
2022-07-29T22:06:01.108Z,78.85
2022-07-29T22:08:32.144Z,78.99
2022-07-29T22:11:01.755Z,79.09
2022-07-29T22:13:31.342Z,79.02
2022-07-29T22:16:00.381Z,79.11
2022-07-29T22:18:35.167Z,78.94
2022-07-29T22:21:04.097Z,78.93
2022-07-29T22:23:33.041Z,79.15
2022-07-29T22:26:03.881Z,78.85
2022-07-29T22:28:32.201Z,79.33
2022-07-29T22:31:00.792Z,79.19
2022-07-29T22:33:31.379Z,78.67
2022-07-29T22:36:01.978Z,77.46
2022-07-29T22:38:30.621Z,76.73
2022-07-29T22:41:01.374Z,76.40
2022-07-29T22:43:32.121Z,76.00
2022-07-29T22:46:02.415Z,76.28
2022-07-29T22:48:32.083Z,76.17
2022-07-29T22:51:07.261Z,76.52
2022-07-29T22:53:39.961Z,76.55
2022-07-29T22:56:11.335Z,76.51
2022-07-29T22:58:42.021Z,77.04
2022-07-29T23:01:12.799Z,77.67
2022-07-29T23:03:51.113Z,78.25
2022-07-29T23:06:22.538Z,78.11
2022-07-29T23:08:52.561Z,78.14
2022-07-29T23:11:22.170Z,78.92
2022-07-29T23:13:57.974Z,79.14
2022-07-29T23:16:30.859Z,79.33
2022-07-29T23:18:59.979Z,79.29
2022-07-29T23:21:32.719Z,79.78
2022-07-29T23:24:05.176Z,80.33
2022-07-29T23:26:37.222Z,80.86
2022-07-29T23:29:07.564Z,81.73
2022-07-29T23:31:41.790Z,82.49
2022-07-29T23:34:13.073Z,82.81
2022-07-29T23:36:43.335Z,82.98
2022-07-29T23:39:13.310Z,83.38
2022-07-29T23:41:44.482Z,83.70
2022-07-29T23:44:12.485Z,83.44
2022-07-29T23:46:44.649Z,83.44
2022-07-29T23:49:14.057Z,83.20
2022-07-29T23:51:47.001Z,83.07
2022-07-29T23:54:17.960Z,83.05
2022-07-29T23:56:46.845Z,82.76
2022-07-29T23:59:14.823Z,82.62
